sensor_id;sensor_type;location;lat;lon;timestamp;P1;durP1;ratioP1;P2;durP2;ratioP2
30515;SDS011;17297;54.022;10.760;2023-02-28T00:00:33;7.15;;;5.20;;
30515;SDS011;17297;54.022;10.760;2023-02-28T00:03:00;6.32;;;4.50;;
30515;SDS011;17297;54.022;10.760;2023-02-28T00:05:26;5.13;;;3.75;;
30515;SDS011;17297;54.022;10.760;2023-02-28T00:07:53;5.85;;;4.18;;
30515;SDS011;17297;54.022;10.760;2023-02-28T00:10:20;5.65;;;4.38;;
30515;SDS011;17297;54.022;10.760;2023-02-28T00:12:49;7.13;;;4.53;;
30515;SDS011;17297;54.022;10.760;2023-02-28T00:15:15;8.20;;;4.18;;
30515;SDS011;17297;54.022;10.760;2023-02-28T00:17:41;6.43;;;4.75;;
30515;SDS011;17297;54.022;10.760;2023-02-28T00:20:07;6.95;;;3.95;;
30515;SDS011;17297;54.022;10.760;2023-02-28T00:22:35;5.28;;;4.15;;
30515;SDS011;17297;54.022;10.760;2023-02-28T00:25:02;5.00;;;3.67;;
30515;SDS011;17297;54.022;10.760;2023-02-28T00:27:28;5.68;;;4.25;;
30515;SDS011;17297;54.022;10.760;2023-02-28T00:29:54;4.32;;;3.42;;
30515;SDS011;17297;54.022;10.760;2023-02-28T00:32:19;4.43;;;3.33;;
30515;SDS011;17297;54.022;10.760;2023-02-28T00:34:45;6.25;;;3.60;;
30515;SDS011;17297;54.022;10.760;2023-02-28T00:37:11;4.13;;;3.13;;
30515;SDS011;17297;54.022;10.760;2023-02-28T00:39:37;4.05;;;3.40;;
30515;SDS011;17297;54.022;10.760;2023-02-28T00:42:03;6.10;;;3.67;;
30515;SDS011;17297;54.022;10.760;2023-02-28T00:44:30;4.45;;;3.17;;
30515;SDS011;17297;54.022;10.760;2023-02-28T00:46:56;5.50;;;3.63;;
30515;SDS011;17297;54.022;10.760;2023-02-28T00:49:23;4.75;;;3.63;;
30515;SDS011;17297;54.022;10.760;2023-02-28T00:51:49;5.13;;;3.00;;
30515;SDS011;17297;54.022;10.760;2023-02-28T00:54:15;4.00;;;2.80;;
30515;SDS011;17297;54.022;10.760;2023-02-28T00:56:46;4.32;;;2.83;;
30515;SDS011;17297;54.022;10.760;2023-02-28T00:59:12;3.50;;;2.28;;
30515;SDS011;17297;54.022;10.760;2023-02-28T01:01:39;3.88;;;2.88;;
30515;SDS011;17297;54.022;10.760;2023-02-28T01:04:05;3.63;;;2.25;;
30515;SDS011;17297;54.022;10.760;2023-02-28T01:06:30;4.55;;;2.53;;
30515;SDS011;17297;54.022;10.760;2023-02-28T01:08:57;3.25;;;2.95;;
30515;SDS011;17297;54.022;10.760;2023-02-28T01:11:22;4.38;;;2.42;;
30515;SDS011;17297;54.022;10.760;2023-02-28T01:13:48;5.13;;;2.50;;
30515;SDS011;17297;54.022;10.760;2023-02-28T01:16:14;3.85;;;2.92;;
30515;SDS011;17297;54.022;10.760;2023-02-28T01:18:40;5.22;;;2.60;;
30515;SDS011;17297;54.022;10.760;2023-02-28T01:21:07;2.78;;;2.38;;
30515;SDS011;17297;54.022;10.760;2023-02-28T01:23:34;4.53;;;2.40;;
30515;SDS011;17297;54.022;10.760;2023-02-28T01:26:10;5.57;;;2.50;;
30515;SDS011;17297;54.022;10.760;2023-02-28T01:28:38;2.78;;;2.00;;
30515;SDS011;17297;54.022;10.760;2023-02-28T01:31:04;2.85;;;2.38;;
30515;SDS011;17297;54.022;10.760;2023-02-28T01:33:30;5.07;;;2.30;;
30515;SDS011;17297;54.022;10.760;2023-02-28T01:35:58;3.20;;;2.10;;
30515;SDS011;17297;54.022;10.760;2023-02-28T01:38:25;2.70;;;1.83;;
30515;SDS011;17297;54.022;10.760;2023-02-28T01:40:53;4.45;;;1.90;;
30515;SDS011;17297;54.022;10.760;2023-02-28T01:43:26;2.45;;;1.77;;
30515;SDS011;17297;54.022;10.760;2023-02-28T01:45:57;3.45;;;1.70;;
30515;SDS011;17297;54.022;10.760;2023-02-28T01:48:34;2.38;;;1.75;;
30515;SDS011;17297;54.022;10.760;2023-02-28T01:51:15;2.65;;;1.67;;
30515;SDS011;17297;54.022;10.760;2023-02-28T01:53:47;2.35;;;1.45;;
30515;SDS011;17297;54.022;10.760;2023-02-28T01:56:17;1.58;;;1.25;;
30515;SDS011;17297;54.022;10.760;2023-02-28T01:58:49;2.58;;;1.70;;
30515;SDS011;17297;54.022;10.760;2023-02-28T02:01:17;1.50;;;1.23;;
30515;SDS011;17297;54.022;10.760;2023-02-28T02:03:57;2.95;;;1.02;;
30515;SDS011;17297;54.022;10.760;2023-02-28T02:06:27;4.72;;;1.60;;
30515;SDS011;17297;54.022;10.760;2023-02-28T02:08:55;2.67;;;1.23;;
30515;SDS011;17297;54.022;10.760;2023-02-28T02:11:22;1.20;;;1.10;;
30515;SDS011;17297;54.022;10.760;2023-02-28T02:14:00;2.10;;;1.35;;
30515;SDS011;17297;54.022;10.760;2023-02-28T02:22:25;1.98;;;1.08;;
30515;SDS011;17297;54.022;10.760;2023-02-28T02:28:04;1.55;;;1.20;;
30515;SDS011;17297;54.022;10.760;2023-02-28T02:37:11;1.38;;;1.08;;
30515;SDS011;17297;54.022;10.760;2023-02-28T02:39:38;1.40;;;0.93;;
30515;SDS011;17297;54.022;10.760;2023-02-28T02:42:31;1.35;;;1.25;;
30515;SDS011;17297;54.022;10.760;2023-02-28T02:45:40;2.13;;;1.38;;
30515;SDS011;17297;54.022;10.760;2023-02-28T02:48:04;1.27;;;1.10;;
30515;SDS011;17297;54.022;10.760;2023-02-28T02:50:39;1.90;;;1.58;;
30515;SDS011;17297;54.022;10.760;2023-02-28T02:53:09;1.83;;;1.30;;
30515;SDS011;17297;54.022;10.760;2023-02-28T02:55:40;1.30;;;1.20;;
30515;SDS011;17297;54.022;10.760;2023-02-28T02:58:10;2.03;;;1.80;;
30515;SDS011;17297;54.022;10.760;2023-02-28T03:00:45;3.17;;;1.67;;
30515;SDS011;17297;54.022;10.760;2023-02-28T03:03:16;1.73;;;1.55;;
30515;SDS011;17297;54.022;10.760;2023-02-28T03:05:46;1.92;;;1.50;;
30515;SDS011;17297;54.022;10.760;2023-02-28T03:08:14;2.58;;;1.75;;
30515;SDS011;17297;54.022;10.760;2023-02-28T03:10:44;3.47;;;1.60;;
30515;SDS011;17297;54.022;10.760;2023-02-28T03:26:45;3.38;;;1.30;;
30515;SDS011;17297;54.022;10.760;2023-02-28T03:29:21;3.28;;;1.20;;
30515;SDS011;17297;54.022;10.760;2023-02-28T03:31:59;2.85;;;1.50;;
30515;SDS011;17297;54.022;10.760;2023-02-28T03:34:37;3.50;;;1.65;;
30515;SDS011;17297;54.022;10.760;2023-02-28T03:37:12;2.33;;;1.30;;
30515;SDS011;17297;54.022;10.760;2023-02-28T03:39:44;1.63;;;1.38;;
30515;SDS011;17297;54.022;10.760;2023-02-28T03:42:15;2.10;;;1.30;;
30515;SDS011;17297;54.022;10.760;2023-02-28T03:45:00;3.10;;;1.40;;
30515;SDS011;17297;54.022;10.760;2023-02-28T03:47:31;2.58;;;2.05;;
30515;SDS011;17297;54.022;10.760;2023-02-28T03:50:03;2.30;;;1.50;;
30515;SDS011;17297;54.022;10.760;2023-02-28T03:52:34;3.83;;;1.50;;
30515;SDS011;17297;54.022;10.760;2023-02-28T03:55:04;4.13;;;1.30;;
30515;SDS011;17297;54.022;10.760;2023-02-28T04:00:35;2.15;;;1.42;;
30515;SDS011;17297;54.022;10.760;2023-02-28T04:03:05;1.52;;;1.35;;
30515;SDS011;17297;54.022;10.760;2023-02-28T04:05:31;1.55;;;1.45;;
30515;SDS011;17297;54.022;10.760;2023-02-28T04:08:05;2.92;;;1.63;;
30515;SDS011;17297;54.022;10.760;2023-02-28T04:10:32;1.80;;;1.55;;
30515;SDS011;17297;54.022;10.760;2023-02-28T04:12:57;2.05;;;1.20;;
30515;SDS011;17297;54.022;10.760;2023-02-28T04:15:23;2.38;;;1.65;;
30515;SDS011;17297;54.022;10.760;2023-02-28T04:17:50;1.58;;;1.20;;
30515;SDS011;17297;54.022;10.760;2023-02-28T04:20:15;1.95;;;1.77;;
30515;SDS011;17297;54.022;10.760;2023-02-28T04:22:41;1.90;;;1.67;;
30515;SDS011;17297;54.022;10.760;2023-02-28T04:25:07;1.60;;;1.50;;
30515;SDS011;17297;54.022;10.760;2023-02-28T04:27:33;3.53;;;1.50;;
30515;SDS011;17297;54.022;10.760;2023-02-28T04:29:59;1.77;;;1.50;;
30515;SDS011;17297;54.022;10.760;2023-02-28T04:32:25;1.90;;;1.63;;
30515;SDS011;17297;54.022;10.760;2023-02-28T04:34:50;2.58;;;1.77;;
30515;SDS011;17297;54.022;10.760;2023-02-28T04:37:15;2.67;;;1.75;;
30515;SDS011;17297;54.022;10.760;2023-02-28T04:39:42;3.38;;;1.65;;
30515;SDS011;17297;54.022;10.760;2023-02-28T04:42:08;1.23;;;1.10;;
30515;SDS011;17297;54.022;10.760;2023-02-28T04:44:33;1.35;;;1.20;;
30515;SDS011;17297;54.022;10.760;2023-02-28T04:46:59;2.75;;;1.52;;
30515;SDS011;17297;54.022;10.760;2023-02-28T04:49:24;3.90;;;1.50;;
30515;SDS011;17297;54.022;10.760;2023-02-28T04:51:50;3.17;;;1.55;;
30515;SDS011;17297;54.022;10.760;2023-02-28T04:54:15;2.28;;;1.50;;
30515;SDS011;17297;54.022;10.760;2023-02-28T04:56:43;2.45;;;1.30;;
30515;SDS011;17297;54.022;10.760;2023-02-28T04:59:08;1.45;;;1.35;;
30515;SDS011;17297;54.022;10.760;2023-02-28T05:01:34;2.67;;;1.40;;
30515;SDS011;17297;54.022;10.760;2023-02-28T05:04:01;2.50;;;1.50;;
30515;SDS011;17297;54.022;10.760;2023-02-28T05:06:29;2.13;;;1.40;;
30515;SDS011;17297;54.022;10.760;2023-02-28T05:08:56;2.67;;;2.00;;
30515;SDS011;17297;54.022;10.760;2023-02-28T05:11:26;2.30;;;1.40;;
30515;SDS011;17297;54.022;10.760;2023-02-28T05:13:54;1.63;;;1.35;;
30515;SDS011;17297;54.022;10.760;2023-02-28T05:16:20;1.88;;;1.75;;
30515;SDS011;17297;54.022;10.760;2023-02-28T05:18:45;2.67;;;1.50;;
30515;SDS011;17297;54.022;10.760;2023-02-28T05:21:22;2.10;;;1.80;;
30515;SDS011;17297;54.022;10.760;2023-02-28T05:24:05;2.85;;;2.65;;
30515;SDS011;17297;54.022;10.760;2023-02-28T05:26:36;2.55;;;1.58;;
30515;SDS011;17297;54.022;10.760;2023-02-28T05:29:05;2.47;;;1.67;;
30515;SDS011;17297;54.022;10.760;2023-02-28T05:31:31;2.08;;;1.58;;
30515;SDS011;17297;54.022;10.760;2023-02-28T05:33:56;1.98;;;1.50;;
30515;SDS011;17297;54.022;10.760;2023-02-28T05:36:22;3.42;;;2.05;;
30515;SDS011;17297;54.022;10.760;2023-02-28T05:38:49;3.55;;;2.13;;
30515;SDS011;17297;54.022;10.760;2023-02-28T05:41:15;3.88;;;2.00;;
30515;SDS011;17297;54.022;10.760;2023-02-28T05:43:42;3.00;;;2.08;;
30515;SDS011;17297;54.022;10.760;2023-02-28T05:46:09;5.25;;;2.67;;
30515;SDS011;17297;54.022;10.760;2023-02-28T05:48:36;3.95;;;2.63;;
30515;SDS011;17297;54.022;10.760;2023-02-28T05:51:03;2.95;;;2.70;;
30515;SDS011;17297;54.022;10.760;2023-02-28T05:53:29;2.92;;;2.63;;
30515;SDS011;17297;54.022;10.760;2023-02-28T05:55:55;4.40;;;2.30;;
30515;SDS011;17297;54.022;10.760;2023-02-28T05:58:21;2.30;;;1.90;;
30515;SDS011;17297;54.022;10.760;2023-02-28T06:00:47;2.00;;;1.80;;
30515;SDS011;17297;54.022;10.760;2023-02-28T06:03:13;2.70;;;2.30;;
30515;SDS011;17297;54.022;10.760;2023-02-28T06:05:38;2.35;;;1.52;;
30515;SDS011;17297;54.022;10.760;2023-02-28T06:08:04;3.50;;;2.00;;
30515;SDS011;17297;54.022;10.760;2023-02-28T06:10:32;3.53;;;1.75;;
30515;SDS011;17297;54.022;10.760;2023-02-28T06:13:05;1.90;;;1.73;;
30515;SDS011;17297;54.022;10.760;2023-02-28T06:15:30;2.70;;;2.10;;
30515;SDS011;17297;54.022;10.760;2023-02-28T06:17:56;2.30;;;1.90;;
30515;SDS011;17297;54.022;10.760;2023-02-28T06:20:22;3.72;;;1.80;;
30515;SDS011;17297;54.022;10.760;2023-02-28T06:22:49;2.00;;;1.70;;
30515;SDS011;17297;54.022;10.760;2023-02-28T06:25:15;3.67;;;2.03;;
30515;SDS011;17297;54.022;10.760;2023-02-28T06:27:41;2.75;;;1.67;;
30515;SDS011;17297;54.022;10.760;2023-02-28T06:30:08;2.38;;;1.95;;
30515;SDS011;17297;54.022;10.760;2023-02-28T06:32:34;2.72;;;1.98;;
30515;SDS011;17297;54.022;10.760;2023-02-28T06:35:05;2.55;;;2.10;;
30515;SDS011;17297;54.022;10.760;2023-02-28T06:37:32;2.45;;;2.25;;
30515;SDS011;17297;54.022;10.760;2023-02-28T06:39:57;3.03;;;2.38;;
30515;SDS011;17297;54.022;10.760;2023-02-28T06:42:24;4.30;;;2.47;;
30515;SDS011;17297;54.022;10.760;2023-02-28T06:44:56;4.65;;;2.30;;
30515;SDS011;17297;54.022;10.760;2023-02-28T06:47:24;4.28;;;2.88;;
30515;SDS011;17297;54.022;10.760;2023-02-28T06:49:50;5.53;;;2.55;;
30515;SDS011;17297;54.022;10.760;2023-02-28T06:52:15;3.55;;;2.38;;
30515;SDS011;17297;54.022;10.760;2023-02-28T06:54:42;4.15;;;2.75;;
30515;SDS011;17297;54.022;10.760;2023-02-28T06:57:07;3.63;;;2.33;;
30515;SDS011;17297;54.022;10.760;2023-02-28T06:59:32;3.13;;;2.70;;
30515;SDS011;17297;54.022;10.760;2023-02-28T07:01:58;4.10;;;2.88;;
30515;SDS011;17297;54.022;10.760;2023-02-28T07:04:24;5.20;;;2.72;;
30515;SDS011;17297;54.022;10.760;2023-02-28T07:06:49;4.13;;;2.33;;
30515;SDS011;17297;54.022;10.760;2023-02-28T07:09:15;5.45;;;2.60;;
30515;SDS011;17297;54.022;10.760;2023-02-28T07:11:40;4.75;;;2.50;;
30515;SDS011;17297;54.022;10.760;2023-02-28T07:14:08;4.05;;;2.50;;
30515;SDS011;17297;54.022;10.760;2023-02-28T07:16:33;4.38;;;2.92;;
30515;SDS011;17297;54.022;10.760;2023-02-28T07:18:59;3.20;;;2.35;;
30515;SDS011;17297;54.022;10.760;2023-02-28T07:21:24;4.90;;;3.17;;
30515;SDS011;17297;54.022;10.760;2023-02-28T07:23:50;6.50;;;3.58;;
30515;SDS011;17297;54.022;10.760;2023-02-28T07:26:17;4.57;;;3.78;;
30515;SDS011;17297;54.022;10.760;2023-02-28T07:28:45;5.38;;;3.10;;
30515;SDS011;17297;54.022;10.760;2023-02-28T07:31:12;3.10;;;2.80;;
30515;SDS011;17297;54.022;10.760;2023-02-28T07:33:42;4.22;;;3.13;;
30515;SDS011;17297;54.022;10.760;2023-02-28T07:36:09;3.63;;;2.85;;
30515;SDS011;17297;54.022;10.760;2023-02-28T07:38:42;3.10;;;2.65;;
30515;SDS011;17297;54.022;10.760;2023-02-28T07:41:09;3.03;;;2.45;;
30515;SDS011;17297;54.022;10.760;2023-02-28T07:43:35;4.68;;;2.95;;
30515;SDS011;17297;54.022;10.760;2023-02-28T07:46:05;3.58;;;2.80;;
30515;SDS011;17297;54.022;10.760;2023-02-28T07:48:32;4.13;;;3.72;;
30515;SDS011;17297;54.022;10.760;2023-02-28T07:50:57;4.65;;;3.35;;
30515;SDS011;17297;54.022;10.760;2023-02-28T07:53:24;4.05;;;2.75;;
30515;SDS011;17297;54.022;10.760;2023-02-28T07:55:50;3.38;;;2.60;;
30515;SDS011;17297;54.022;10.760;2023-02-28T07:58:15;2.95;;;2.60;;
30515;SDS011;17297;54.022;10.760;2023-02-28T08:00:41;3.65;;;2.90;;
30515;SDS011;17297;54.022;10.760;2023-02-28T08:03:08;3.15;;;2.42;;
30515;SDS011;17297;54.022;10.760;2023-02-28T08:05:40;3.28;;;2.60;;
30515;SDS011;17297;54.022;10.760;2023-02-28T08:08:05;3.47;;;2.55;;
30515;SDS011;17297;54.022;10.760;2023-02-28T08:10:32;5.10;;;2.28;;
30515;SDS011;17297;54.022;10.760;2023-02-28T08:12:58;4.97;;;2.50;;
30515;SDS011;17297;54.022;10.760;2023-02-28T08:15:23;4.07;;;2.72;;
30515;SDS011;17297;54.022;10.760;2023-02-28T08:17:49;4.03;;;2.97;;
30515;SDS011;17297;54.022;10.760;2023-02-28T08:20:14;4.15;;;3.20;;
30515;SDS011;17297;54.022;10.760;2023-02-28T08:22:40;3.78;;;2.75;;
30515;SDS011;17297;54.022;10.760;2023-02-28T08:25:06;3.58;;;2.60;;
30515;SDS011;17297;54.022;10.760;2023-02-28T08:27:32;3.58;;;2.33;;
30515;SDS011;17297;54.022;10.760;2023-02-28T08:29:58;5.65;;;2.58;;
30515;SDS011;17297;54.022;10.760;2023-02-28T08:32:23;6.65;;;3.00;;
30515;SDS011;17297;54.022;10.760;2023-02-28T08:34:49;5.22;;;2.85;;
30515;SDS011;17297;54.022;10.760;2023-02-28T08:37:15;6.22;;;3.05;;
30515;SDS011;17297;54.022;10.760;2023-02-28T08:39:40;4.10;;;2.70;;
30515;SDS011;17297;54.022;10.760;2023-02-28T08:42:06;4.03;;;2.50;;
30515;SDS011;17297;54.022;10.760;2023-02-28T08:44:31;3.67;;;2.92;;
30515;SDS011;17297;54.022;10.760;2023-02-28T08:46:57;4.65;;;3.08;;
30515;SDS011;17297;54.022;10.760;2023-02-28T08:49:22;4.47;;;2.70;;
30515;SDS011;17297;54.022;10.760;2023-02-28T08:51:47;4.82;;;3.42;;
30515;SDS011;17297;54.022;10.760;2023-02-28T08:54:13;5.03;;;3.20;;
30515;SDS011;17297;54.022;10.760;2023-02-28T08:56:41;5.20;;;3.63;;
30515;SDS011;17297;54.022;10.760;2023-02-28T08:59:08;4.97;;;3.55;;
30515;SDS011;17297;54.022;10.760;2023-02-28T09:01:34;3.28;;;2.85;;
30515;SDS011;17297;54.022;10.760;2023-02-28T09:04:01;4.97;;;3.83;;
30515;SDS011;17297;54.022;10.760;2023-02-28T09:06:27;5.80;;;4.07;;
30515;SDS011;17297;54.022;10.760;2023-02-28T09:08:55;5.05;;;3.17;;
30515;SDS011;17297;54.022;10.760;2023-02-28T09:11:23;5.15;;;3.38;;
30515;SDS011;17297;54.022;10.760;2023-02-28T09:13:49;6.88;;;3.38;;
30515;SDS011;17297;54.022;10.760;2023-02-28T09:16:15;4.50;;;3.05;;
30515;SDS011;17297;54.022;10.760;2023-02-28T09:18:42;6.43;;;3.88;;
30515;SDS011;17297;54.022;10.760;2023-02-28T09:21:09;5.03;;;3.53;;
30515;SDS011;17297;54.022;10.760;2023-02-28T09:23:39;5.07;;;3.38;;
30515;SDS011;17297;54.022;10.760;2023-02-28T09:28:42;7.65;;;3.33;;
30515;SDS011;17297;54.022;10.760;2023-02-28T09:31:10;3.65;;;3.25;;
30515;SDS011;17297;54.022;10.760;2023-02-28T09:33:38;7.70;;;3.90;;
30515;SDS011;17297;54.022;10.760;2023-02-28T09:36:04;7.50;;;3.78;;
30515;SDS011;17297;54.022;10.760;2023-02-28T09:38:30;8.10;;;4.00;;
30515;SDS011;17297;54.022;10.760;2023-02-28T09:40:59;6.20;;;4.10;;
30515;SDS011;17297;54.022;10.760;2023-02-28T09:43:33;4.40;;;3.70;;
30515;SDS011;17297;54.022;10.760;2023-02-28T09:48:51;4.88;;;3.70;;
30515;SDS011;17297;54.022;10.760;2023-02-28T09:54:08;6.07;;;3.97;;
30515;SDS011;17297;54.022;10.760;2023-02-28T09:56:51;5.57;;;4.45;;
30515;SDS011;17297;54.022;10.760;2023-02-28T10:02:17;4.93;;;4.30;;
30515;SDS011;17297;54.022;10.760;2023-02-28T10:04:54;6.72;;;4.35;;
30515;SDS011;17297;54.022;10.760;2023-02-28T10:07:30;7.63;;;5.38;;
30515;SDS011;17297;54.022;10.760;2023-02-28T10:10:00;6.55;;;4.78;;
30515;SDS011;17297;54.022;10.760;2023-02-28T10:12:29;7.88;;;4.88;;
30515;SDS011;17297;54.022;10.760;2023-02-28T10:14:58;5.40;;;4.15;;
30515;SDS011;17297;54.022;10.760;2023-02-28T10:17:30;5.88;;;3.83;;
30515;SDS011;17297;54.022;10.760;2023-02-28T10:20:07;6.20;;;4.30;;
30515;SDS011;17297;54.022;10.760;2023-02-28T10:25:27;11.35;;;4.32;;
30515;SDS011;17297;54.022;10.760;2023-02-28T10:28:13;7.40;;;4.13;;
30515;SDS011;17297;54.022;10.760;2023-02-28T10:30:42;6.05;;;4.50;;
30515;SDS011;17297;54.022;10.760;2023-02-28T10:33:32;7.65;;;4.40;;
30515;SDS011;17297;54.022;10.760;2023-02-28T10:35:57;5.57;;;4.72;;
30515;SDS011;17297;54.022;10.760;2023-02-28T10:38:24;6.55;;;3.92;;
30515;SDS011;17297;54.022;10.760;2023-02-28T10:41:03;5.47;;;4.10;;
30515;SDS011;17297;54.022;10.760;2023-02-28T10:43:31;6.25;;;4.15;;
30515;SDS011;17297;54.022;10.760;2023-02-28T10:51:24;6.25;;;4.72;;
30515;SDS011;17297;54.022;10.760;2023-02-28T10:53:50;5.43;;;3.78;;
30515;SDS011;17297;54.022;10.760;2023-02-28T11:04:18;6.15;;;4.05;;
30515;SDS011;17297;54.022;10.760;2023-02-28T11:06:47;5.75;;;4.30;;
30515;SDS011;17297;54.022;10.760;2023-02-28T11:09:25;6.53;;;4.70;;
30515;SDS011;17297;54.022;10.760;2023-02-28T11:11:55;5.47;;;4.07;;
30515;SDS011;17297;54.022;10.760;2023-02-28T11:14:24;4.72;;;3.75;;
30515;SDS011;17297;54.022;10.760;2023-02-28T11:16:52;5.03;;;3.58;;
30515;SDS011;17297;54.022;10.760;2023-02-28T11:19:20;4.68;;;3.30;;
30515;SDS011;17297;54.022;10.760;2023-02-28T11:22:08;5.05;;;3.00;;
30515;SDS011;17297;54.022;10.760;2023-02-28T11:24:42;3.97;;;2.65;;
30515;SDS011;17297;54.022;10.760;2023-02-28T11:27:39;4.57;;;3.10;;
30515;SDS011;17297;54.022;10.760;2023-02-28T11:30:24;6.97;;;4.10;;
30515;SDS011;17297;54.022;10.760;2023-02-28T11:32:50;5.65;;;3.95;;
30515;SDS011;17297;54.022;10.760;2023-02-28T11:35:31;4.55;;;3.80;;
30515;SDS011;17297;54.022;10.760;2023-02-28T11:38:01;7.10;;;4.10;;
30515;SDS011;17297;54.022;10.760;2023-02-28T11:40:29;8.98;;;3.55;;
30515;SDS011;17297;54.022;10.760;2023-02-28T11:43:11;3.88;;;2.63;;
30515;SDS011;17297;54.022;10.760;2023-02-28T11:51:18;6.55;;;3.55;;
30515;SDS011;17297;54.022;10.760;2023-02-28T11:53:51;4.78;;;2.90;;
30515;SDS011;17297;54.022;10.760;2023-02-28T11:56:37;3.00;;;2.65;;
30515;SDS011;17297;54.022;10.760;2023-02-28T12:04:58;3.10;;;2.22;;
30515;SDS011;17297;54.022;10.760;2023-02-28T12:10:36;7.10;;;2.88;;
30515;SDS011;17297;54.022;10.760;2023-02-28T12:13:18;6.60;;;2.45;;
30515;SDS011;17297;54.022;10.760;2023-02-28T12:23:57;2.55;;;2.30;;
30515;SDS011;17297;54.022;10.760;2023-02-28T12:32:04;3.45;;;2.28;;
30515;SDS011;17297;54.022;10.760;2023-02-28T12:34:39;7.82;;;2.22;;
30515;SDS011;17297;54.022;10.760;2023-02-28T12:37:14;3.22;;;2.20;;
30515;SDS011;17297;54.022;10.760;2023-02-28T12:39:48;3.10;;;2.10;;
30515;SDS011;17297;54.022;10.760;2023-02-28T12:42:24;2.33;;;2.10;;
30515;SDS011;17297;54.022;10.760;2023-02-28T12:44:54;3.10;;;2.50;;
30515;SDS011;17297;54.022;10.760;2023-02-28T12:47:24;2.95;;;2.20;;
30515;SDS011;17297;54.022;10.760;2023-02-28T12:49:50;2.47;;;2.28;;
30515;SDS011;17297;54.022;10.760;2023-02-28T12:52:22;3.60;;;1.90;;
30515;SDS011;17297;54.022;10.760;2023-02-28T12:55:00;5.75;;;3.40;;
30515;SDS011;17297;54.022;10.760;2023-02-28T12:57:35;2.80;;;1.88;;
30515;SDS011;17297;54.022;10.760;2023-02-28T13:08:27;3.13;;;1.60;;
30515;SDS011;17297;54.022;10.760;2023-02-28T13:11:29;1.42;;;1.20;;
30515;SDS011;17297;54.022;10.760;2023-02-28T13:13:59;2.10;;;1.20;;
30515;SDS011;17297;54.022;10.760;2023-02-28T13:16:27;2.63;;;1.85;;
30515;SDS011;17297;54.022;10.760;2023-02-28T13:18:53;1.75;;;1.52;;
30515;SDS011;17297;54.022;10.760;2023-02-28T13:21:41;2.88;;;1.70;;
30515;SDS011;17297;54.022;10.760;2023-02-28T13:24:09;1.92;;;1.20;;
30515;SDS011;17297;54.022;10.760;2023-02-28T13:29:01;2.53;;;1.40;;
30515;SDS011;17297;54.022;10.760;2023-02-28T13:34:41;2.88;;;1.33;;
30515;SDS011;17297;54.022;10.760;2023-02-28T13:47:43;1.70;;;1.27;;
30515;SDS011;17297;54.022;10.760;2023-02-28T13:50:15;1.95;;;1.15;;
30515;SDS011;17297;54.022;10.760;2023-02-28T13:55:54;2.05;;;1.20;;
30515;SDS011;17297;54.022;10.760;2023-02-28T14:06:35;0.80;;;0.80;;
30515;SDS011;17297;54.022;10.760;2023-02-28T14:09:06;2.17;;;1.10;;
30515;SDS011;17297;54.022;10.760;2023-02-28T14:11:53;4.35;;;0.98;;
30515;SDS011;17297;54.022;10.760;2023-02-28T14:17:14;1.85;;;0.82;;
30515;SDS011;17297;54.022;10.760;2023-02-28T14:19:43;1.35;;;0.98;;
30515;SDS011;17297;54.022;10.760;2023-02-28T14:38:24;0.90;;;0.90;;
30515;SDS011;17297;54.022;10.760;2023-02-28T14:40:54;2.42;;;0.70;;
30515;SDS011;17297;54.022;10.760;2023-02-28T14:43:23;0.50;;;0.50;;
30515;SDS011;17297;54.022;10.760;2023-02-28T14:45:55;1.45;;;0.63;;
30515;SDS011;17297;54.022;10.760;2023-02-28T14:48:23;0.68;;;0.68;;
30515;SDS011;17297;54.022;10.760;2023-02-28T14:50:51;0.50;;;0.50;;
30515;SDS011;17297;54.022;10.760;2023-02-28T14:53:26;0.77;;;0.63;;
30515;SDS011;17297;54.022;10.760;2023-02-28T14:55:54;0.65;;;0.50;;
30515;SDS011;17297;54.022;10.760;2023-02-28T14:58:27;2.55;;;0.63;;
30515;SDS011;17297;54.022;10.760;2023-02-28T15:00:56;0.77;;;0.70;;
30515;SDS011;17297;54.022;10.760;2023-02-28T15:05:56;0.60;;;0.60;;
30515;SDS011;17297;54.022;10.760;2023-02-28T15:08:23;0.77;;;0.68;;
30515;SDS011;17297;54.022;10.760;2023-02-28T15:10:53;0.70;;;0.57;;
30515;SDS011;17297;54.022;10.760;2023-02-28T15:13:34;0.75;;;0.52;;
30515;SDS011;17297;54.022;10.760;2023-02-28T15:16:04;1.35;;;0.60;;
30515;SDS011;17297;54.022;10.760;2023-02-28T15:18:54;1.08;;;0.60;;
30515;SDS011;17297;54.022;10.760;2023-02-28T15:21:32;0.47;;;0.47;;
30515;SDS011;17297;54.022;10.760;2023-02-28T15:23:59;0.52;;;0.52;;
30515;SDS011;17297;54.022;10.760;2023-02-28T15:26:29;1.00;;;0.50;;
30515;SDS011;17297;54.022;10.760;2023-02-28T15:29:01;0.85;;;0.60;;
30515;SDS011;17297;54.022;10.760;2023-02-28T15:31:34;0.75;;;0.75;;
30515;SDS011;17297;54.022;10.760;2023-02-28T15:34:19;0.82;;;0.68;;
30515;SDS011;17297;54.022;10.760;2023-02-28T15:36:53;0.65;;;0.60;;
30515;SDS011;17297;54.022;10.760;2023-02-28T15:39:23;0.60;;;0.60;;
30515;SDS011;17297;54.022;10.760;2023-02-28T15:41:52;1.08;;;0.80;;
30515;SDS011;17297;54.022;10.760;2023-02-28T15:44:34;1.10;;;0.88;;
30515;SDS011;17297;54.022;10.760;2023-02-28T15:49:26;0.93;;;0.73;;
30515;SDS011;17297;54.022;10.760;2023-02-28T15:51:53;0.80;;;0.80;;
30515;SDS011;17297;54.022;10.760;2023-02-28T15:54:24;1.13;;;1.02;;
30515;SDS011;17297;54.022;10.760;2023-02-28T15:56:53;0.75;;;0.65;;
30515;SDS011;17297;54.022;10.760;2023-02-28T15:59:23;1.05;;;0.60;;
30515;SDS011;17297;54.022;10.760;2023-02-28T16:04:35;1.20;;;0.75;;
30515;SDS011;17297;54.022;10.760;2023-02-28T16:07:03;0.50;;;0.50;;
30515;SDS011;17297;54.022;10.760;2023-02-28T16:09:37;0.63;;;0.63;;
30515;SDS011;17297;54.022;10.760;2023-02-28T16:12:03;0.57;;;0.57;;
30515;SDS011;17297;54.022;10.760;2023-02-28T16:14:30;0.75;;;0.55;;
30515;SDS011;17297;54.022;10.760;2023-02-28T16:16:57;0.68;;;0.60;;
30515;SDS011;17297;54.022;10.760;2023-02-28T16:19:28;1.20;;;0.63;;
30515;SDS011;17297;54.022;10.760;2023-02-28T16:21:54;0.60;;;0.60;;
30515;SDS011;17297;54.022;10.760;2023-02-28T16:24:19;1.27;;;0.60;;
30515;SDS011;17297;54.022;10.760;2023-02-28T16:26:46;0.60;;;0.60;;
30515;SDS011;17297;54.022;10.760;2023-02-28T16:29:13;0.68;;;0.60;;
30515;SDS011;17297;54.022;10.760;2023-02-28T16:31:46;1.10;;;1.00;;
30515;SDS011;17297;54.022;10.760;2023-02-28T16:34:12;1.00;;;0.70;;
30515;SDS011;17297;54.022;10.760;2023-02-28T16:36:38;0.77;;;0.70;;
30515;SDS011;17297;54.022;10.760;2023-02-28T16:39:03;0.60;;;0.60;;
30515;SDS011;17297;54.022;10.760;2023-02-28T16:41:30;1.35;;;0.75;;
30515;SDS011;17297;54.022;10.760;2023-02-28T16:43:56;0.50;;;0.50;;
30515;SDS011;17297;54.022;10.760;2023-02-28T16:46:27;1.45;;;0.70;;
30515;SDS011;17297;54.022;10.760;2023-02-28T16:48:58;1.30;;;0.70;;
30515;SDS011;17297;54.022;10.760;2023-02-28T16:51:23;1.00;;;0.82;;
30515;SDS011;17297;54.022;10.760;2023-02-28T16:53:49;1.70;;;0.75;;
30515;SDS011;17297;54.022;10.760;2023-02-28T16:56:16;0.88;;;0.57;;
30515;SDS011;17297;54.022;10.760;2023-02-28T16:58:43;1.60;;;0.88;;
30515;SDS011;17297;54.022;10.760;2023-02-28T17:01:09;1.17;;;0.70;;
30515;SDS011;17297;54.022;10.760;2023-02-28T17:03:35;1.30;;;0.70;;
30515;SDS011;17297;54.022;10.760;2023-02-28T17:06:02;1.33;;;0.93;;
30515;SDS011;17297;54.022;10.760;2023-02-28T17:08:28;5.07;;;1.15;;
30515;SDS011;17297;54.022;10.760;2023-02-28T17:10:55;3.17;;;1.45;;
30515;SDS011;17297;54.022;10.760;2023-02-28T17:13:20;2.40;;;1.40;;
30515;SDS011;17297;54.022;10.760;2023-02-28T17:15:46;1.67;;;1.42;;